createdAt,value
2018-08-20T00:00:44.265Z,21.40
2018-08-20T00:04:49.910Z,21.40
2018-08-20T00:08:52.513Z,21.30
2018-08-20T00:12:55.073Z,21.40
2018-08-20T00:16:57.866Z,21.20
2018-08-20T00:21:00.474Z,21.10
2018-08-20T00:25:16.647Z,21.10
2018-08-20T00:29:19.198Z,21.00
2018-08-20T00:33:22.233Z,21.00
2018-08-20T00:37:24.850Z,21.00
2018-08-20T00:41:27.495Z,21.00
2018-08-20T00:45:30.162Z,20.80
2018-08-20T00:49:32.772Z,21.00
2018-08-20T00:53:35.355Z,20.80
2018-08-20T00:57:38.070Z,20.80
2018-08-20T01:01:40.710Z,20.80
2018-08-20T01:05:43.349Z,20.70
2018-08-20T01:09:46.278Z,20.70
2018-08-20T01:13:49.233Z,20.70
2018-08-20T01:17:51.840Z,20.60
2018-08-20T01:21:54.474Z,20.70
2018-08-20T01:25:57.086Z,20.60
2018-08-20T01:29:59.711Z,20.70
2018-08-20T01:34:02.275Z,20.60
2018-08-20T01:38:05.318Z,20.60
2018-08-20T01:42:08.026Z,20.60
2018-08-20T01:46:10.610Z,20.60
2018-08-20T01:50:13.190Z,20.70
2018-08-20T01:54:15.784Z,20.50
2018-08-20T01:58:18.503Z,20.50
2018-08-20T02:02:21.151Z,20.50
2018-08-20T02:06:23.962Z,20.60
2018-08-20T02:10:26.764Z,20.60
2018-08-20T02:14:29.412Z,20.40
2018-08-20T02:18:32.150Z,20.30
2018-08-20T02:22:34.731Z,20.30
2018-08-20T02:26:37.399Z,20.40
2018-08-20T02:30:39.965Z,20.40
2018-08-20T02:38:51.805Z,20.40
2018-08-20T02:42:54.368Z,20.30
2018-08-20T02:46:57.035Z,20.30
2018-08-20T02:50:59.726Z,20.50
2018-08-20T02:55:02.430Z,20.30
2018-08-20T02:59:05.079Z,20.30
2018-08-20T03:03:07.726Z,20.30
2018-08-20T03:07:10.374Z,20.40
2018-08-20T03:11:13.045Z,20.40
2018-08-20T03:15:15.646Z,20.40
2018-08-20T03:19:18.333Z,20.30
2018-08-20T03:23:20.969Z,20.40
2018-08-20T03:27:23.535Z,20.30
2018-08-20T03:31:26.209Z,20.30
2018-08-20T03:35:28.830Z,20.20
2018-08-20T03:39:31.396Z,20.30
2018-08-20T03:43:33.979Z,20.30
2018-08-20T03:47:36.624Z,20.30
2018-08-20T03:51:39.201Z,20.20
2018-08-20T03:55:41.827Z,20.10
2018-08-20T03:59:44.383Z,20.20
2018-08-20T04:03:47.023Z,20.30
2018-08-20T04:07:49.733Z,20.20
2018-08-20T04:11:52.843Z,20.20
2018-08-20T04:15:55.497Z,20.10
2018-08-20T04:19:58.083Z,20.00
2018-08-20T04:24:00.751Z,20.10
2018-08-20T04:28:03.418Z,20.00
2018-08-20T04:32:06.039Z,19.80
2018-08-20T04:36:08.726Z,20.00
2018-08-20T04:40:11.374Z,19.90
2018-08-20T04:44:14.035Z,19.90
2018-08-20T04:48:16.699Z,19.90
2018-08-20T04:52:19.342Z,19.80
2018-08-20T04:56:22.334Z,19.80
2018-08-20T05:00:25.060Z,19.80
2018-08-20T05:04:27.755Z,19.90
2018-08-20T05:08:30.424Z,19.80
2018-08-20T05:12:33.123Z,19.80
2018-08-20T05:16:35.714Z,19.90
2018-08-20T05:20:38.402Z,19.80
2018-08-20T05:24:41.086Z,19.90
2018-08-20T05:28:43.687Z,19.80
2018-08-20T05:32:46.415Z,19.90
2018-08-20T05:36:49.105Z,19.90
2018-08-20T05:40:51.769Z,19.90
2018-08-20T05:44:54.499Z,19.80
2018-08-20T05:48:57.374Z,19.80
2018-08-20T05:53:00.023Z,19.90
2018-08-20T05:57:02.832Z,20.00
2018-08-20T06:01:05.443Z,19.80
2018-08-20T06:05:08.101Z,19.90
2018-08-20T06:09:11.409Z,20.10
2018-08-20T06:13:14.111Z,20.10
2018-08-20T06:17:16.730Z,20.00
2018-08-20T06:21:19.414Z,20.10
2018-08-20T06:25:22.089Z,20.10
2018-08-20T06:29:24.789Z,20.10
2018-08-20T06:33:27.449Z,20.30
2018-08-20T06:37:30.186Z,20.20
2018-08-20T06:41:32.956Z,20.40
2018-08-20T06:45:35.634Z,20.40
2018-08-20T06:49:38.258Z,20.40
2018-08-20T06:53:40.929Z,20.20
2018-08-20T06:57:44.719Z,20.30
2018-08-20T07:01:47.418Z,20.40
2018-08-20T07:05:50.105Z,20.40
2018-08-20T07:09:52.801Z,20.50
2018-08-20T07:13:55.492Z,20.60
2018-08-20T07:17:58.163Z,20.70
2018-08-20T07:22:01.281Z,20.70
2018-08-20T07:26:03.945Z,20.80
2018-08-20T07:30:09.047Z,20.80
2018-08-20T07:34:11.705Z,20.80
2018-08-20T07:38:14.588Z,20.90
2018-08-20T07:42:17.258Z,20.80
2018-08-20T07:46:20.082Z,20.70
2018-08-20T07:50:22.689Z,20.80
2018-08-20T07:54:25.407Z,21.10
2018-08-20T07:58:28.090Z,21.30
2018-08-20T08:02:30.778Z,21.40
2018-08-20T08:06:33.486Z,21.50
2018-08-20T08:10:36.171Z,21.50
2018-08-20T08:14:38.960Z,21.60
2018-08-20T08:18:41.749Z,21.50
2018-08-20T08:22:44.501Z,21.50
2018-08-20T08:26:47.215Z,21.70
2018-08-20T08:30:50.019Z,21.80
2018-08-20T08:34:52.953Z,21.30
2018-08-20T08:38:55.681Z,21.30
2018-08-20T08:42:58.396Z,21.40
2018-08-20T08:47:01.220Z,21.40
2018-08-20T08:51:03.930Z,21.60
2018-08-20T08:55:07.219Z,21.70
2018-08-20T08:59:10.871Z,21.70
2018-08-20T09:03:13.487Z,21.90
2018-08-20T09:07:16.167Z,22.30
2018-08-20T09:11:19.215Z,22.20
2018-08-20T09:15:22.107Z,22.50
2018-08-20T09:19:24.861Z,22.60
2018-08-20T09:23:27.464Z,22.40
2018-08-20T09:27:30.160Z,22.40
2018-08-20T09:31:32.828Z,22.30
2018-08-20T09:35:35.435Z,22.80
2018-08-20T09:39:38.125Z,22.90
2018-08-20T09:43:40.804Z,23.20
2018-08-20T09:47:43.479Z,23.30
2018-08-20T09:51:46.169Z,23.60
2018-08-20T09:55:48.861Z,23.80
2018-08-20T09:59:51.563Z,23.40
2018-08-20T10:03:54.214Z,23.10
2018-08-20T10:07:56.842Z,23.10
2018-08-20T10:11:59.583Z,22.90
2018-08-20T10:16:02.227Z,22.50
2018-08-20T10:20:07.249Z,22.30
2018-08-20T10:24:09.848Z,22.30
2018-08-20T10:28:13.094Z,22.10
2018-08-20T10:32:15.773Z,22.10
2018-08-20T10:36:18.470Z,22.00
2018-08-20T10:40:21.164Z,21.90
2018-08-20T10:44:23.829Z,21.70
2018-08-20T10:48:26.523Z,21.50
2018-08-20T10:52:29.341Z,21.50
2018-08-20T10:56:32.255Z,21.20
2018-08-20T11:00:34.965Z,21.20
2018-08-20T11:04:38.281Z,21.20
2018-08-20T11:08:40.953Z,21.20
2018-08-20T11:12:43.754Z,21.30
2018-08-20T11:16:46.405Z,21.30
2018-08-20T11:20:49.042Z,21.20
2018-08-20T11:24:51.843Z,21.30
2018-08-20T11:28:54.544Z,21.40
2018-08-20T11:32:57.237Z,21.50
2018-08-20T11:36:59.908Z,21.70
2018-08-20T11:41:02.589Z,21.70
2018-08-20T11:45:07.236Z,22.00
2018-08-20T11:49:09.846Z,22.00
2018-08-20T11:53:12.492Z,22.10
2018-08-20T11:57:15.185Z,22.10
2018-08-20T12:01:17.945Z,22.10
2018-08-20T12:05:20.636Z,22.10
2018-08-20T12:09:23.251Z,22.30
2018-08-20T12:13:25.991Z,22.50
2018-08-20T12:17:28.656Z,22.60
2018-08-20T12:21:31.366Z,22.80
2018-08-20T12:25:34.012Z,23.00
2018-08-20T12:29:36.632Z,23.30
2018-08-20T12:33:39.538Z,23.60
2018-08-20T12:37:42.343Z,24.00
2018-08-20T12:41:44.983Z,24.40
2018-08-20T12:45:47.592Z,24.70
2018-08-20T12:49:50.497Z,25.00
2018-08-20T12:53:53.173Z,24.90
2018-08-20T12:57:55.871Z,25.00
2018-08-20T13:01:58.785Z,25.20
2018-08-20T13:06:01.530Z,25.30
2018-08-20T13:10:06.259Z,25.50
2018-08-20T13:14:09.003Z,25.70
2018-08-20T13:18:11.763Z,25.80
2018-08-20T13:22:14.404Z,26.10
2018-08-20T13:26:17.256Z,26.00
2018-08-20T13:30:19.934Z,25.90
2018-08-20T13:34:23.451Z,26.10
2018-08-20T13:38:26.199Z,26.10
2018-08-20T13:42:29.552Z,25.80
2018-08-20T13:46:32.371Z,25.60
2018-08-20T13:50:35.209Z,25.30
2018-08-20T13:54:41.409Z,25.20
2018-08-20T13:58:44.079Z,25.10
2018-08-20T14:02:47.167Z,24.90
2018-08-20T14:06:49.820Z,24.90
2018-08-20T14:10:52.543Z,24.90
2018-08-20T14:14:55.202Z,24.80
2018-08-20T14:18:58.017Z,24.50
2018-08-20T14:23:00.933Z,24.40
2018-08-20T14:27:03.746Z,24.30
2018-08-20T14:31:06.435Z,24.40
2018-08-20T14:35:10.118Z,24.40
2018-08-20T14:39:12.797Z,24.70
2018-08-20T14:43:15.476Z,25.00
2018-08-20T14:47:18.101Z,25.20
2018-08-20T14:51:20.972Z,25.00
2018-08-20T14:55:24.712Z,24.90
2018-08-20T14:59:27.345Z,24.70
2018-08-20T15:03:30.037Z,24.70
2018-08-20T15:07:33.188Z,24.80
2018-08-20T15:11:35.878Z,24.90
2018-08-20T15:15:38.645Z,25.00
2018-08-20T15:19:41.167Z,24.80
2018-08-20T15:23:43.831Z,24.70
2018-08-20T15:27:46.550Z,24.70
2018-08-20T15:31:49.280Z,24.60
2018-08-20T15:35:52.005Z,24.50
2018-08-20T15:39:54.656Z,24.60
2018-08-20T15:43:57.272Z,24.40
2018-08-20T15:47:59.929Z,24.20
2018-08-20T15:52:02.824Z,24.10
2018-08-20T15:56:05.662Z,24.10
2018-08-20T16:00:12.981Z,24.10
2018-08-20T16:04:16.052Z,24.00
2018-08-20T16:08:18.803Z,23.90
2018-08-20T16:12:21.669Z,23.70
2018-08-20T16:16:24.322Z,23.60
2018-08-20T16:20:27.425Z,23.50
2018-08-20T16:24:30.096Z,23.40
2018-08-20T16:28:32.761Z,23.40
2018-08-20T16:32:35.606Z,23.40
2018-08-20T16:36:38.312Z,23.30
2018-08-20T16:40:40.973Z,23.30
2018-08-20T16:44:43.665Z,23.30
2018-08-20T16:48:46.243Z,23.20
2018-08-20T16:52:48.993Z,23.20
2018-08-20T16:56:51.645Z,23.10
2018-08-20T17:00:54.322Z,23.00
2018-08-20T17:04:57.174Z,22.90
2018-08-20T17:08:59.780Z,22.90
2018-08-20T17:13:02.341Z,22.80
2018-08-20T17:17:05.034Z,22.80
2018-08-20T17:21:08.046Z,22.70
2018-08-20T17:25:10.677Z,22.60
2018-08-20T17:29:13.345Z,22.60
2018-08-20T17:33:16.161Z,22.60
2018-08-20T17:37:21.031Z,22.50
2018-08-20T17:41:23.632Z,22.50
2018-08-20T17:45:26.367Z,22.50
2018-08-20T17:49:29.975Z,22.40
2018-08-20T17:53:43.840Z,22.50
2018-08-20T17:57:46.564Z,22.30
2018-08-20T18:01:49.249Z,22.30
2018-08-20T18:06:08.947Z,22.10
2018-08-20T18:10:11.661Z,22.10
2018-08-20T18:14:14.371Z,21.90
2018-08-20T18:18:16.948Z,21.90
2018-08-20T18:22:20.053Z,21.90
2018-08-20T18:26:24.106Z,21.70
2018-08-20T18:30:26.887Z,21.80
2018-08-20T18:34:29.458Z,21.70
2018-08-20T18:38:37.428Z,21.70
2018-08-20T18:42:45.986Z,21.70
2018-08-20T18:46:49.525Z,21.70
2018-08-20T18:50:52.310Z,21.70
2018-08-20T18:54:56.843Z,21.60
2018-08-20T18:58:59.646Z,21.50
2018-08-20T19:03:04.604Z,21.50
2018-08-20T19:07:11.576Z,21.50
2018-08-20T19:11:14.309Z,21.50
2018-08-20T19:15:29.099Z,21.50
2018-08-20T19:19:36.521Z,21.40
2018-08-20T19:23:39.375Z,21.30
2018-08-20T19:27:44.156Z,21.30
2018-08-20T19:31:47.032Z,21.30
2018-08-20T19:35:49.884Z,21.30
2018-08-20T19:39:52.733Z,21.40
2018-08-20T19:43:55.442Z,21.50
2018-08-20T19:47:58.158Z,21.60
2018-08-20T19:52:00.926Z,21.40
2018-08-20T19:56:03.864Z,21.40
2018-08-20T20:00:09.392Z,21.30
2018-08-20T20:04:15.712Z,21.30
2018-08-20T20:08:18.475Z,21.40
2018-08-20T20:12:21.382Z,21.40
2018-08-20T20:16:24.618Z,21.30
2018-08-20T20:20:27.334Z,21.40
2018-08-20T20:24:30.105Z,21.30
2018-08-20T20:28:33.028Z,21.20
2018-08-20T20:32:35.789Z,21.20
2018-08-20T20:36:38.666Z,21.20
2018-08-20T20:40:41.309Z,21.10
2018-08-20T20:44:44.165Z,21.10
2018-08-20T20:48:46.889Z,21.00
2018-08-20T20:52:49.644Z,21.10
2018-08-20T20:56:52.274Z,21.00
2018-08-20T21:00:54.896Z,21.00
2018-08-20T21:05:03.216Z,21.10
2018-08-20T21:09:08.630Z,21.10
2018-08-20T21:13:11.273Z,21.00
2018-08-20T21:17:13.921Z,21.00
2018-08-20T21:21:17.651Z,21.00
2018-08-20T21:25:20.239Z,21.40
2018-08-20T21:29:24.250Z,21.30
2018-08-20T21:33:26.865Z,21.60
2018-08-20T21:37:29.558Z,21.40
2018-08-20T21:41:32.437Z,21.50
2018-08-20T21:45:35.220Z,21.60
2018-08-20T21:49:37.868Z,21.40
2018-08-20T21:53:40.566Z,21.40
2018-08-20T21:58:00.895Z,21.40
2018-08-20T22:02:03.596Z,21.50
2018-08-20T22:06:06.351Z,21.40
2018-08-20T22:10:09.011Z,21.40
2018-08-20T22:14:11.731Z,21.40
2018-08-20T22:18:14.718Z,21.40
2018-08-20T22:22:21.591Z,21.40
2018-08-20T22:26:24.299Z,21.40
2018-08-20T22:30:26.885Z,21.70
2018-08-20T22:34:29.539Z,21.90
2018-08-20T22:38:50.686Z,21.80
2018-08-20T22:42:55.386Z,21.50
2018-08-20T22:46:58.049Z,21.00
2018-08-20T22:51:08.994Z,21.00
2018-08-20T22:55:12.718Z,20.90
2018-08-20T22:59:15.360Z,21.40
2018-08-20T23:03:17.944Z,21.30
2018-08-20T23:07:20.591Z,21.30
2018-08-20T23:11:37.909Z,21.40
2018-08-20T23:15:40.560Z,21.10
2018-08-20T23:19:43.166Z,20.90
2018-08-20T23:23:45.826Z,20.90
2018-08-20T23:27:49.818Z,21.00
2018-08-20T23:31:52.462Z,20.80
2018-08-20T23:35:55.131Z,21.00
2018-08-20T23:39:57.819Z,21.10
2018-08-20T23:44:00.564Z,20.90
2018-08-20T23:48:03.250Z,20.90
2018-08-20T23:52:05.931Z,20.80
2018-08-20T23:56:08.544Z,20.80
